sensor_id;sensor_type;location;lat;lon;timestamp;P1;durP1;ratioP1;P2;durP2;ratioP2
6626;SDS011;3349;49.830;8.748;2023-04-28T00:02:00;6.78;;;4.63;;
6626;SDS011;3349;49.830;8.748;2023-04-28T00:04:27;7.88;;;4.95;;
6626;SDS011;3349;49.830;8.748;2023-04-28T00:06:53;6.10;;;4.88;;
6626;SDS011;3349;49.830;8.748;2023-04-28T00:09:21;6.93;;;5.40;;
6626;SDS011;3349;49.830;8.748;2023-04-28T00:11:48;5.80;;;4.30;;
6626;SDS011;3349;49.830;8.748;2023-04-28T00:14:15;6.78;;;4.40;;
6626;SDS011;3349;49.830;8.748;2023-04-28T00:16:42;7.35;;;4.70;;
6626;SDS011;3349;49.830;8.748;2023-04-28T00:19:08;5.68;;;4.85;;
6626;SDS011;3349;49.830;8.748;2023-04-28T00:21:35;5.55;;;4.65;;
6626;SDS011;3349;49.830;8.748;2023-04-28T00:24:02;7.25;;;4.68;;
6626;SDS011;3349;49.830;8.748;2023-04-28T00:26:30;5.95;;;4.82;;
6626;SDS011;3349;49.830;8.748;2023-04-28T00:28:57;6.32;;;4.88;;
6626;SDS011;3349;49.830;8.748;2023-04-28T00:31:23;7.47;;;4.40;;
6626;SDS011;3349;49.830;8.748;2023-04-28T00:33:50;8.20;;;7.35;;
6626;SDS011;3349;49.830;8.748;2023-04-28T00:36:17;7.65;;;6.95;;
6626;SDS011;3349;49.830;8.748;2023-04-28T00:38:43;5.53;;;5.00;;
6626;SDS011;3349;49.830;8.748;2023-04-28T00:41:10;5.72;;;4.43;;
6626;SDS011;3349;49.830;8.748;2023-04-28T00:43:47;5.13;;;3.80;;
6626;SDS011;3349;49.830;8.748;2023-04-28T00:46:17;4.63;;;4.03;;
6626;SDS011;3349;49.830;8.748;2023-04-28T00:48:47;8.90;;;4.10;;
6626;SDS011;3349;49.830;8.748;2023-04-28T00:51:14;7.13;;;4.63;;
6626;SDS011;3349;49.830;8.748;2023-04-28T00:53:41;5.28;;;4.20;;
6626;SDS011;3349;49.830;8.748;2023-04-28T00:56:08;6.05;;;3.90;;
6626;SDS011;3349;49.830;8.748;2023-04-28T00:58:35;4.18;;;3.78;;
6626;SDS011;3349;49.830;8.748;2023-04-28T01:01:04;7.35;;;3.80;;
6626;SDS011;3349;49.830;8.748;2023-04-28T01:03:32;6.85;;;4.25;;
6626;SDS011;3349;49.830;8.748;2023-04-28T01:06:01;5.72;;;3.83;;
6626;SDS011;3349;49.830;8.748;2023-04-28T01:08:29;5.05;;;3.78;;
6626;SDS011;3349;49.830;8.748;2023-04-28T01:10:57;4.53;;;3.80;;
6626;SDS011;3349;49.830;8.748;2023-04-28T01:13:24;6.85;;;3.80;;
6626;SDS011;3349;49.830;8.748;2023-04-28T01:15:51;5.38;;;3.97;;
6626;SDS011;3349;49.830;8.748;2023-04-28T01:18:19;4.20;;;3.80;;
6626;SDS011;3349;49.830;8.748;2023-04-28T01:20:46;5.07;;;3.83;;
6626;SDS011;3349;49.830;8.748;2023-04-28T01:23:13;4.32;;;3.85;;
6626;SDS011;3349;49.830;8.748;2023-04-28T01:25:42;3.92;;;3.53;;
6626;SDS011;3349;49.830;8.748;2023-04-28T01:28:09;5.50;;;3.83;;
6626;SDS011;3349;49.830;8.748;2023-04-28T01:30:36;6.82;;;4.22;;
6626;SDS011;3349;49.830;8.748;2023-04-28T01:33:03;5.22;;;3.90;;
6626;SDS011;3349;49.830;8.748;2023-04-28T01:35:30;7.47;;;4.47;;
6626;SDS011;3349;49.830;8.748;2023-04-28T01:37:57;8.15;;;4.40;;
6626;SDS011;3349;49.830;8.748;2023-04-28T01:40:23;6.40;;;4.30;;
6626;SDS011;3349;49.830;8.748;2023-04-28T01:42:51;7.32;;;4.18;;
6626;SDS011;3349;49.830;8.748;2023-04-28T01:45:18;5.00;;;3.95;;
6626;SDS011;3349;49.830;8.748;2023-04-28T01:47:45;7.55;;;4.50;;
6626;SDS011;3349;49.830;8.748;2023-04-28T01:50:12;7.63;;;4.18;;
6626;SDS011;3349;49.830;8.748;2023-04-28T01:52:38;5.22;;;4.72;;
6626;SDS011;3349;49.830;8.748;2023-04-28T01:55:05;4.82;;;4.32;;
6626;SDS011;3349;49.830;8.748;2023-04-28T01:57:33;6.95;;;4.90;;
6626;SDS011;3349;49.830;8.748;2023-04-28T02:00:01;6.28;;;4.68;;
6626;SDS011;3349;49.830;8.748;2023-04-28T02:02:29;7.35;;;4.68;;
6626;SDS011;3349;49.830;8.748;2023-04-28T02:04:55;11.10;;;5.00;;
6626;SDS011;3349;49.830;8.748;2023-04-28T02:07:23;6.93;;;5.20;;
6626;SDS011;3349;49.830;8.748;2023-04-28T02:09:49;6.30;;;4.78;;
6626;SDS011;3349;49.830;8.748;2023-04-28T02:12:16;5.28;;;4.35;;
6626;SDS011;3349;49.830;8.748;2023-04-28T02:14:43;5.65;;;4.00;;
6626;SDS011;3349;49.830;8.748;2023-04-28T02:17:11;4.75;;;4.22;;
6626;SDS011;3349;49.830;8.748;2023-04-28T02:19:38;6.65;;;4.35;;
6626;SDS011;3349;49.830;8.748;2023-04-28T02:22:04;6.38;;;4.47;;
6626;SDS011;3349;49.830;8.748;2023-04-28T02:24:33;6.18;;;4.80;;
6626;SDS011;3349;49.830;8.748;2023-04-28T02:27:00;6.75;;;5.10;;
6626;SDS011;3349;49.830;8.748;2023-04-28T02:29:27;5.75;;;5.13;;
6626;SDS011;3349;49.830;8.748;2023-04-28T02:31:54;6.63;;;5.20;;
6626;SDS011;3349;49.830;8.748;2023-04-28T02:34:22;6.93;;;5.63;;
6626;SDS011;3349;49.830;8.748;2023-04-28T02:36:49;7.38;;;5.07;;
6626;SDS011;3349;49.830;8.748;2023-04-28T02:39:15;7.22;;;4.80;;
6626;SDS011;3349;49.830;8.748;2023-04-28T02:41:42;6.68;;;4.75;;
6626;SDS011;3349;49.830;8.748;2023-04-28T02:44:09;8.77;;;5.00;;
6626;SDS011;3349;49.830;8.748;2023-04-28T02:46:35;6.45;;;4.72;;
6626;SDS011;3349;49.830;8.748;2023-04-28T02:49:02;6.57;;;4.88;;
6626;SDS011;3349;49.830;8.748;2023-04-28T02:51:30;5.95;;;5.35;;
6626;SDS011;3349;49.830;8.748;2023-04-28T02:53:57;5.90;;;4.38;;
6626;SDS011;3349;49.830;8.748;2023-04-28T02:56:23;5.20;;;4.72;;
6626;SDS011;3349;49.830;8.748;2023-04-28T02:58:50;6.20;;;5.60;;
6626;SDS011;3349;49.830;8.748;2023-04-28T03:01:17;7.00;;;5.43;;
6626;SDS011;3349;49.830;8.748;2023-04-28T03:03:44;5.55;;;5.00;;
6626;SDS011;3349;49.830;8.748;2023-04-28T03:06:10;6.95;;;4.72;;
6626;SDS011;3349;49.830;8.748;2023-04-28T03:08:38;6.38;;;5.00;;
6626;SDS011;3349;49.830;8.748;2023-04-28T03:11:05;8.00;;;4.32;;
6626;SDS011;3349;49.830;8.748;2023-04-28T03:13:32;5.07;;;4.57;;
6626;SDS011;3349;49.830;8.748;2023-04-28T03:15:59;6.03;;;4.72;;
6626;SDS011;3349;49.830;8.748;2023-04-28T03:18:26;7.70;;;4.90;;
6626;SDS011;3349;49.830;8.748;2023-04-28T03:20:53;7.88;;;4.40;;
6626;SDS011;3349;49.830;8.748;2023-04-28T03:23:20;7.85;;;4.68;;
6626;SDS011;3349;49.830;8.748;2023-04-28T03:25:48;5.55;;;4.63;;
6626;SDS011;3349;49.830;8.748;2023-04-28T03:28:15;6.05;;;4.28;;
6626;SDS011;3349;49.830;8.748;2023-04-28T03:30:41;4.72;;;4.22;;
6626;SDS011;3349;49.830;8.748;2023-04-28T03:33:08;6.30;;;4.47;;
6626;SDS011;3349;49.830;8.748;2023-04-28T03:35:35;7.68;;;4.30;;
6626;SDS011;3349;49.830;8.748;2023-04-28T03:38:01;5.80;;;4.90;;
6626;SDS011;3349;49.830;8.748;2023-04-28T03:40:28;5.55;;;4.60;;
6626;SDS011;3349;49.830;8.748;2023-04-28T03:42:56;5.50;;;4.82;;
6626;SDS011;3349;49.830;8.748;2023-04-28T03:45:23;5.55;;;4.63;;
6626;SDS011;3349;49.830;8.748;2023-04-28T03:47:50;6.35;;;4.82;;
6626;SDS011;3349;49.830;8.748;2023-04-28T03:50:16;4.97;;;4.50;;
6626;SDS011;3349;49.830;8.748;2023-04-28T03:52:43;6.70;;;4.75;;
6626;SDS011;3349;49.830;8.748;2023-04-28T03:55:10;6.10;;;4.30;;
6626;SDS011;3349;49.830;8.748;2023-04-28T03:57:37;5.57;;;4.85;;
6626;SDS011;3349;49.830;8.748;2023-04-28T04:00:06;5.68;;;4.50;;
6626;SDS011;3349;49.830;8.748;2023-04-28T04:02:34;6.30;;;5.10;;
6626;SDS011;3349;49.830;8.748;2023-04-28T04:05:00;7.57;;;5.25;;
6626;SDS011;3349;49.830;8.748;2023-04-28T04:07:27;4.88;;;4.38;;
6626;SDS011;3349;49.830;8.748;2023-04-28T04:09:54;6.57;;;5.20;;
6626;SDS011;3349;49.830;8.748;2023-04-28T04:12:20;6.68;;;4.70;;
6626;SDS011;3349;49.830;8.748;2023-04-28T04:14:47;7.30;;;5.40;;
6626;SDS011;3349;49.830;8.748;2023-04-28T04:17:15;6.13;;;5.43;;
6626;SDS011;3349;49.830;8.748;2023-04-28T04:19:42;5.28;;;4.68;;
6626;SDS011;3349;49.830;8.748;2023-04-28T04:22:08;7.63;;;5.40;;
6626;SDS011;3349;49.830;8.748;2023-04-28T04:24:35;6.43;;;5.45;;
6626;SDS011;3349;49.830;8.748;2023-04-28T04:27:02;7.80;;;5.55;;
6626;SDS011;3349;49.830;8.748;2023-04-28T04:29:28;7.50;;;5.57;;
6626;SDS011;3349;49.830;8.748;2023-04-28T04:31:55;10.45;;;7.85;;
6626;SDS011;3349;49.830;8.748;2023-04-28T04:34:23;13.50;;;7.90;;
6626;SDS011;3349;49.830;8.748;2023-04-28T04:36:50;15.07;;;9.68;;
6626;SDS011;3349;49.830;8.748;2023-04-28T04:39:17;15.27;;;10.40;;
6626;SDS011;3349;49.830;8.748;2023-04-28T04:41:43;17.85;;;12.68;;
6626;SDS011;3349;49.830;8.748;2023-04-28T04:44:10;18.65;;;12.68;;
6626;SDS011;3349;49.830;8.748;2023-04-28T04:46:37;20.48;;;13.25;;
6626;SDS011;3349;49.830;8.748;2023-04-28T04:49:04;17.95;;;12.77;;
6626;SDS011;3349;49.830;8.748;2023-04-28T04:51:32;18.45;;;11.98;;
6626;SDS011;3349;49.830;8.748;2023-04-28T04:53:59;13.95;;;10.88;;
6626;SDS011;3349;49.830;8.748;2023-04-28T04:56:26;14.65;;;9.98;;
6626;SDS011;3349;49.830;8.748;2023-04-28T04:58:53;13.15;;;7.43;;
6626;SDS011;3349;49.830;8.748;2023-04-28T05:01:19;11.68;;;7.63;;
6626;SDS011;3349;49.830;8.748;2023-04-28T05:03:46;9.93;;;7.25;;
6626;SDS011;3349;49.830;8.748;2023-04-28T05:06:13;10.48;;;6.35;;
6626;SDS011;3349;49.830;8.748;2023-04-28T05:08:41;8.50;;;6.05;;
6626;SDS011;3349;49.830;8.748;2023-04-28T05:11:07;8.77;;;7.53;;
6626;SDS011;3349;49.830;8.748;2023-04-28T05:13:34;8.98;;;6.40;;
6626;SDS011;3349;49.830;8.748;2023-04-28T05:16:01;7.95;;;6.35;;
6626;SDS011;3349;49.830;8.748;2023-04-28T05:18:28;9.98;;;7.10;;
6626;SDS011;3349;49.830;8.748;2023-04-28T05:20:54;9.85;;;6.82;;
6626;SDS011;3349;49.830;8.748;2023-04-28T05:23:21;9.07;;;7.28;;
6626;SDS011;3349;49.830;8.748;2023-04-28T05:25:50;8.70;;;7.05;;
6626;SDS011;3349;49.830;8.748;2023-04-28T05:28:16;8.48;;;7.53;;
6626;SDS011;3349;49.830;8.748;2023-04-28T05:30:43;12.85;;;8.45;;
6626;SDS011;3349;49.830;8.748;2023-04-28T05:33:10;12.27;;;8.70;;
6626;SDS011;3349;49.830;8.748;2023-04-28T05:35:37;13.40;;;8.85;;
6626;SDS011;3349;49.830;8.748;2023-04-28T05:38:04;12.70;;;9.10;;
6626;SDS011;3349;49.830;8.748;2023-04-28T05:40:32;8.77;;;7.85;;
6626;SDS011;3349;49.830;8.748;2023-04-28T05:43:00;9.27;;;7.72;;
6626;SDS011;3349;49.830;8.748;2023-04-28T05:45:26;10.35;;;7.22;;
6626;SDS011;3349;49.830;8.748;2023-04-28T05:47:53;8.73;;;7.47;;
6626;SDS011;3349;49.830;8.748;2023-04-28T05:50:20;10.13;;;8.02;;
6626;SDS011;3349;49.830;8.748;2023-04-28T05:52:47;9.23;;;7.72;;
6626;SDS011;3349;49.830;8.748;2023-04-28T05:55:13;8.98;;;8.07;;
6626;SDS011;3349;49.830;8.748;2023-04-28T05:57:40;11.18;;;7.85;;
6626;SDS011;3349;49.830;8.748;2023-04-28T06:00:09;10.02;;;7.90;;
6626;SDS011;3349;49.830;8.748;2023-04-28T06:02:37;9.23;;;7.72;;
6626;SDS011;3349;49.830;8.748;2023-04-28T06:05:04;9.90;;;8.35;;
6626;SDS011;3349;49.830;8.748;2023-04-28T06:07:31;10.45;;;7.78;;
6626;SDS011;3349;49.830;8.748;2023-04-28T06:09:58;14.25;;;8.77;;
6626;SDS011;3349;49.830;8.748;2023-04-28T06:12:24;13.32;;;8.43;;
6626;SDS011;3349;49.830;8.748;2023-04-28T06:14:51;12.07;;;8.15;;
6626;SDS011;3349;49.830;8.748;2023-04-28T06:17:20;9.60;;;7.78;;
6626;SDS011;3349;49.830;8.748;2023-04-28T06:19:48;11.98;;;8.38;;
6626;SDS011;3349;49.830;8.748;2023-04-28T06:22:15;10.40;;;7.15;;
6626;SDS011;3349;49.830;8.748;2023-04-28T06:24:42;9.23;;;8.00;;
6626;SDS011;3349;49.830;8.748;2023-04-28T06:27:08;11.52;;;7.85;;
6626;SDS011;3349;49.830;8.748;2023-04-28T06:29:35;11.63;;;8.45;;
6626;SDS011;3349;49.830;8.748;2023-04-28T06:32:02;9.50;;;7.70;;
6626;SDS011;3349;49.830;8.748;2023-04-28T06:34:31;14.95;;;8.93;;
6626;SDS011;3349;49.830;8.748;2023-04-28T06:36:57;16.83;;;9.90;;
6626;SDS011;3349;49.830;8.748;2023-04-28T06:39:24;15.07;;;8.60;;
6626;SDS011;3349;49.830;8.748;2023-04-28T06:41:51;16.35;;;11.07;;
6626;SDS011;3349;49.830;8.748;2023-04-28T06:44:18;17.50;;;10.00;;
6626;SDS011;3349;49.830;8.748;2023-04-28T06:46:45;11.82;;;9.73;;
6626;SDS011;3349;49.830;8.748;2023-04-28T06:49:12;13.30;;;9.25;;
6626;SDS011;3349;49.830;8.748;2023-04-28T06:51:40;13.35;;;9.55;;
6626;SDS011;3349;49.830;8.748;2023-04-28T06:54:06;13.38;;;9.93;;
6626;SDS011;3349;49.830;8.748;2023-04-28T06:56:34;14.10;;;10.32;;
6626;SDS011;3349;49.830;8.748;2023-04-28T06:59:01;10.93;;;9.65;;
6626;SDS011;3349;49.830;8.748;2023-04-28T07:01:27;12.20;;;9.77;;
6626;SDS011;3349;49.830;8.748;2023-04-28T07:03:54;12.18;;;9.45;;
6626;SDS011;3349;49.830;8.748;2023-04-28T07:06:21;11.88;;;10.23;;
6626;SDS011;3349;49.830;8.748;2023-04-28T07:08:49;13.43;;;10.70;;
6626;SDS011;3349;49.830;8.748;2023-04-28T07:11:15;15.20;;;12.93;;
6626;SDS011;3349;49.830;8.748;2023-04-28T07:13:42;18.85;;;12.63;;
6626;SDS011;3349;49.830;8.748;2023-04-28T07:16:10;13.70;;;11.30;;
6626;SDS011;3349;49.830;8.748;2023-04-28T07:18:36;16.25;;;10.65;;
6626;SDS011;3349;49.830;8.748;2023-04-28T07:21:03;13.10;;;10.20;;
6626;SDS011;3349;49.830;8.748;2023-04-28T07:23:30;14.85;;;9.90;;
6626;SDS011;3349;49.830;8.748;2023-04-28T07:25:58;16.52;;;11.43;;
6626;SDS011;3349;49.830;8.748;2023-04-28T07:28:25;17.25;;;12.07;;
6626;SDS011;3349;49.830;8.748;2023-04-28T07:30:52;12.13;;;10.82;;
6626;SDS011;3349;49.830;8.748;2023-04-28T07:33:19;13.35;;;11.35;;
6626;SDS011;3349;49.830;8.748;2023-04-28T07:35:45;14.45;;;12.52;;
6626;SDS011;3349;49.830;8.748;2023-04-28T07:38:13;20.13;;;14.10;;
6626;SDS011;3349;49.830;8.748;2023-04-28T07:40:40;19.48;;;13.85;;
6626;SDS011;3349;49.830;8.748;2023-04-28T07:43:09;16.08;;;13.38;;
6626;SDS011;3349;49.830;8.748;2023-04-28T07:45:36;18.73;;;14.88;;
6626;SDS011;3349;49.830;8.748;2023-04-28T07:48:04;23.17;;;19.08;;
6626;SDS011;3349;49.830;8.748;2023-04-28T07:50:31;21.98;;;16.83;;
6626;SDS011;3349;49.830;8.748;2023-04-28T07:52:58;27.73;;;18.80;;
6626;SDS011;3349;49.830;8.748;2023-04-28T07:55:25;19.30;;;16.50;;
6626;SDS011;3349;49.830;8.748;2023-04-28T07:57:52;22.40;;;17.92;;
6626;SDS011;3349;49.830;8.748;2023-04-28T08:00:20;24.20;;;15.68;;
6626;SDS011;3349;49.830;8.748;2023-04-28T08:02:47;25.30;;;17.25;;
6626;SDS011;3349;49.830;8.748;2023-04-28T08:05:14;21.08;;;16.77;;
6626;SDS011;3349;49.830;8.748;2023-04-28T08:07:42;20.88;;;15.15;;
6626;SDS011;3349;49.830;8.748;2023-04-28T08:10:09;16.10;;;13.68;;
6626;SDS011;3349;49.830;8.748;2023-04-28T08:12:36;13.85;;;12.38;;
6626;SDS011;3349;49.830;8.748;2023-04-28T08:15:05;15.90;;;12.27;;
6626;SDS011;3349;49.830;8.748;2023-04-28T08:17:33;14.85;;;12.35;;
6626;SDS011;3349;49.830;8.748;2023-04-28T08:20:00;16.33;;;13.07;;
6626;SDS011;3349;49.830;8.748;2023-04-28T08:22:27;15.20;;;11.95;;
6626;SDS011;3349;49.830;8.748;2023-04-28T08:24:53;13.77;;;12.38;;
6626;SDS011;3349;49.830;8.748;2023-04-28T08:27:21;12.63;;;11.20;;
6626;SDS011;3349;49.830;8.748;2023-04-28T08:29:49;13.82;;;11.27;;
6626;SDS011;3349;49.830;8.748;2023-04-28T08:32:16;16.63;;;12.63;;
6626;SDS011;3349;49.830;8.748;2023-04-28T08:34:45;15.93;;;13.02;;
6626;SDS011;3349;49.830;8.748;2023-04-28T08:37:11;15.32;;;12.30;;
6626;SDS011;3349;49.830;8.748;2023-04-28T08:39:38;12.20;;;10.95;;
6626;SDS011;3349;49.830;8.748;2023-04-28T08:42:05;12.57;;;11.27;;
6626;SDS011;3349;49.830;8.748;2023-04-28T08:44:33;13.77;;;11.45;;
6626;SDS011;3349;49.830;8.748;2023-04-28T08:47:03;12.77;;;10.80;;
6626;SDS011;3349;49.830;8.748;2023-04-28T08:49:34;12.50;;;11.30;;
6626;SDS011;3349;49.830;8.748;2023-04-28T08:52:05;12.93;;;11.60;;
6626;SDS011;3349;49.830;8.748;2023-04-28T08:54:35;10.63;;;9.55;;
6626;SDS011;3349;49.830;8.748;2023-04-28T08:57:04;13.65;;;10.60;;
6626;SDS011;3349;49.830;8.748;2023-04-28T08:59:36;10.60;;;9.50;;
6626;SDS011;3349;49.830;8.748;2023-04-28T09:02:05;12.85;;;10.75;;
6626;SDS011;3349;49.830;8.748;2023-04-28T09:04:33;14.80;;;11.00;;
6626;SDS011;3349;49.830;8.748;2023-04-28T09:07:00;15.98;;;11.15;;
6626;SDS011;3349;49.830;8.748;2023-04-28T09:09:28;14.77;;;12.60;;
6626;SDS011;3349;49.830;8.748;2023-04-28T09:11:57;16.20;;;11.80;;
6626;SDS011;3349;49.830;8.748;2023-04-28T09:14:25;12.25;;;10.02;;
6626;SDS011;3349;49.830;8.748;2023-04-28T09:16:52;14.73;;;12.88;;
6626;SDS011;3349;49.830;8.748;2023-04-28T09:19:19;12.82;;;11.48;;
6626;SDS011;3349;49.830;8.748;2023-04-28T09:21:47;13.10;;;11.02;;
6626;SDS011;3349;49.830;8.748;2023-04-28T09:24:29;11.68;;;10.48;;
6626;SDS011;3349;49.830;8.748;2023-04-28T09:26:57;10.45;;;9.45;;
6626;SDS011;3349;49.830;8.748;2023-04-28T09:29:24;10.38;;;9.35;;
6626;SDS011;3349;49.830;8.748;2023-04-28T09:31:51;10.52;;;9.43;;
6626;SDS011;3349;49.830;8.748;2023-04-28T09:34:19;10.65;;;8.55;;
6626;SDS011;3349;49.830;8.748;2023-04-28T09:36:46;10.48;;;8.25;;
6626;SDS011;3349;49.830;8.748;2023-04-28T09:39:12;8.70;;;7.80;;
6626;SDS011;3349;49.830;8.748;2023-04-28T09:41:41;8.18;;;7.38;;
6626;SDS011;3349;49.830;8.748;2023-04-28T09:44:13;8.32;;;7.53;;
6626;SDS011;3349;49.830;8.748;2023-04-28T09:46:41;8.48;;;7.57;;
6626;SDS011;3349;49.830;8.748;2023-04-28T09:49:08;8.35;;;7.55;;
6626;SDS011;3349;49.830;8.748;2023-04-28T09:51:35;10.00;;;8.40;;
6626;SDS011;3349;49.830;8.748;2023-04-28T09:54:02;8.65;;;7.78;;
6626;SDS011;3349;49.830;8.748;2023-04-28T09:56:30;8.60;;;7.75;;
6626;SDS011;3349;49.830;8.748;2023-04-28T09:59:00;8.88;;;7.30;;
6626;SDS011;3349;49.830;8.748;2023-04-28T10:01:29;8.40;;;7.38;;
6626;SDS011;3349;49.830;8.748;2023-04-28T10:03:58;8.57;;;7.78;;
6626;SDS011;3349;49.830;8.748;2023-04-28T10:06:27;8.25;;;7.45;;
6626;SDS011;3349;49.830;8.748;2023-04-28T10:08:55;8.30;;;7.50;;
6626;SDS011;3349;49.830;8.748;2023-04-28T10:11:24;10.25;;;9.25;;
6626;SDS011;3349;49.830;8.748;2023-04-28T10:13:52;9.27;;;8.45;;
6626;SDS011;3349;49.830;8.748;2023-04-28T10:16:20;9.98;;;8.93;;
6626;SDS011;3349;49.830;8.748;2023-04-28T10:18:48;9.73;;;8.73;;
6626;SDS011;3349;49.830;8.748;2023-04-28T10:21:16;9.55;;;8.65;;
6626;SDS011;3349;49.830;8.748;2023-04-28T10:26:49;9.15;;;8.35;;
6626;SDS011;3349;49.830;8.748;2023-04-28T10:29:29;11.18;;;8.98;;
6626;SDS011;3349;49.830;8.748;2023-04-28T10:32:17;9.65;;;8.75;;
6626;SDS011;3349;49.830;8.748;2023-04-28T10:34:47;9.30;;;8.40;;
6626;SDS011;3349;49.830;8.748;2023-04-28T10:37:14;9.38;;;8.57;;
6626;SDS011;3349;49.830;8.748;2023-04-28T10:42:54;9.07;;;8.20;;
6626;SDS011;3349;49.830;8.748;2023-04-28T10:51:31;10.18;;;9.18;;
6626;SDS011;3349;49.830;8.748;2023-04-28T10:54:17;11.00;;;9.85;;
6626;SDS011;3349;49.830;8.748;2023-04-28T10:59:46;11.45;;;10.35;;
6626;SDS011;3349;49.830;8.748;2023-04-28T11:02:34;10.82;;;9.82;;
6626;SDS011;3349;49.830;8.748;2023-04-28T11:05:12;11.70;;;10.50;;
6626;SDS011;3349;49.830;8.748;2023-04-28T11:07:41;11.75;;;10.65;;
6626;SDS011;3349;49.830;8.748;2023-04-28T11:11:11;11.50;;;10.45;;
6626;SDS011;3349;49.830;8.748;2023-04-28T11:13:43;16.38;;;14.52;;
6626;SDS011;3349;49.830;8.748;2023-04-28T11:16:12;13.70;;;12.30;;
6626;SDS011;3349;49.830;8.748;2023-04-28T11:18:48;11.55;;;10.45;;
6626;SDS011;3349;49.830;8.748;2023-04-28T11:21:19;11.93;;;10.82;;
6626;SDS011;3349;49.830;8.748;2023-04-28T11:23:48;12.32;;;11.20;;
6626;SDS011;3349;49.830;8.748;2023-04-28T11:26:15;12.23;;;11.10;;
6626;SDS011;3349;49.830;8.748;2023-04-28T11:28:46;11.68;;;10.57;;
6626;SDS011;3349;49.830;8.748;2023-04-28T11:31:18;14.65;;;12.45;;
6626;SDS011;3349;49.830;8.748;2023-04-28T11:33:48;13.95;;;12.60;;
6626;SDS011;3349;49.830;8.748;2023-04-28T11:39:07;14.15;;;12.75;;
6626;SDS011;3349;49.830;8.748;2023-04-28T11:41:36;14.50;;;13.18;;
6626;SDS011;3349;49.830;8.748;2023-04-28T11:44:10;14.73;;;13.32;;
6626;SDS011;3349;49.830;8.748;2023-04-28T11:46:43;14.70;;;12.98;;
6626;SDS011;3349;49.830;8.748;2023-04-28T11:49:14;14.27;;;12.98;;
6626;SDS011;3349;49.830;8.748;2023-04-28T11:51:41;14.65;;;13.30;;
6626;SDS011;3349;49.830;8.748;2023-04-28T11:54:12;14.27;;;12.88;;
6626;SDS011;3349;49.830;8.748;2023-04-28T11:56:39;12.80;;;11.70;;
6626;SDS011;3349;49.830;8.748;2023-04-28T11:59:09;14.20;;;12.80;;
6626;SDS011;3349;49.830;8.748;2023-04-28T12:01:43;13.77;;;12.48;;
6626;SDS011;3349;49.830;8.748;2023-04-28T12:04:11;13.85;;;12.45;;
6626;SDS011;3349;49.830;8.748;2023-04-28T12:06:39;13.23;;;11.75;;
6626;SDS011;3349;49.830;8.748;2023-04-28T12:09:17;17.25;;;12.30;;
6626;SDS011;3349;49.830;8.748;2023-04-28T12:11:52;13.68;;;12.38;;
6626;SDS011;3349;49.830;8.748;2023-04-28T12:14:23;13.25;;;12.05;;
6626;SDS011;3349;49.830;8.748;2023-04-28T12:16:50;14.05;;;12.65;;
6626;SDS011;3349;49.830;8.748;2023-04-28T12:19:17;12.73;;;11.55;;
6626;SDS011;3349;49.830;8.748;2023-04-28T12:21:57;14.15;;;12.80;;
6626;SDS011;3349;49.830;8.748;2023-04-28T12:24:30;14.27;;;12.85;;
6626;SDS011;3349;49.830;8.748;2023-04-28T12:27:12;13.60;;;12.25;;
6626;SDS011;3349;49.830;8.748;2023-04-28T12:29:40;13.25;;;11.95;;
6626;SDS011;3349;49.830;8.748;2023-04-28T12:32:09;13.68;;;12.38;;
6626;SDS011;3349;49.830;8.748;2023-04-28T12:34:37;11.88;;;10.70;;
6626;SDS011;3349;49.830;8.748;2023-04-28T12:37:05;12.02;;;10.82;;
6626;SDS011;3349;49.830;8.748;2023-04-28T12:39:34;12.23;;;11.05;;
6626;SDS011;3349;49.830;8.748;2023-04-28T12:42:02;11.68;;;10.68;;
6626;SDS011;3349;49.830;8.748;2023-04-28T12:44:33;11.48;;;10.35;;
6626;SDS011;3349;49.830;8.748;2023-04-28T12:47:02;10.38;;;9.40;;
6626;SDS011;3349;49.830;8.748;2023-04-28T12:49:31;9.15;;;8.25;;
6626;SDS011;3349;49.830;8.748;2023-04-28T12:51:58;8.63;;;7.78;;
6626;SDS011;3349;49.830;8.748;2023-04-28T12:54:25;7.22;;;6.57;;
6626;SDS011;3349;49.830;8.748;2023-04-28T12:56:53;6.80;;;6.20;;
6626;SDS011;3349;49.830;8.748;2023-04-28T12:59:20;9.68;;;5.25;;
6626;SDS011;3349;49.830;8.748;2023-04-28T13:01:47;5.00;;;4.60;;
6626;SDS011;3349;49.830;8.748;2023-04-28T13:04:14;4.50;;;4.10;;
6626;SDS011;3349;49.830;8.748;2023-04-28T13:06:41;4.15;;;3.63;;
6626;SDS011;3349;49.830;8.748;2023-04-28T13:09:08;4.28;;;3.88;;
6626;SDS011;3349;49.830;8.748;2023-04-28T13:11:36;3.65;;;3.33;;
6626;SDS011;3349;49.830;8.748;2023-04-28T13:14:04;3.53;;;3.25;;
6626;SDS011;3349;49.830;8.748;2023-04-28T13:16:31;3.60;;;3.30;;
6626;SDS011;3349;49.830;8.748;2023-04-28T13:18:58;3.25;;;3.05;;
6626;SDS011;3349;49.830;8.748;2023-04-28T13:21:26;3.30;;;3.00;;
6626;SDS011;3349;49.830;8.748;2023-04-28T13:23:53;3.53;;;2.80;;
6626;SDS011;3349;49.830;8.748;2023-04-28T13:26:20;3.25;;;2.95;;
6626;SDS011;3349;49.830;8.748;2023-04-28T13:28:48;2.40;;;2.00;;
6626;SDS011;3349;49.830;8.748;2023-04-28T13:31:17;2.20;;;2.00;;
6626;SDS011;3349;49.830;8.748;2023-04-28T13:33:44;1.95;;;1.85;;
6626;SDS011;3349;49.830;8.748;2023-04-28T13:36:11;1.70;;;1.60;;
6626;SDS011;3349;49.830;8.748;2023-04-28T13:38:38;1.73;;;1.60;;
6626;SDS011;3349;49.830;8.748;2023-04-28T13:41:04;1.48;;;1.38;;
6626;SDS011;3349;49.830;8.748;2023-04-28T13:43:31;1.52;;;1.40;;
6626;SDS011;3349;49.830;8.748;2023-04-28T13:45:58;4.75;;;1.60;;
6626;SDS011;3349;49.830;8.748;2023-04-28T13:48:26;2.17;;;1.98;;
6626;SDS011;3349;49.830;8.748;2023-04-28T13:50:53;2.53;;;2.28;;
6626;SDS011;3349;49.830;8.748;2023-04-28T13:53:20;2.83;;;2.50;;
6626;SDS011;3349;49.830;8.748;2023-04-28T13:55:48;3.00;;;2.50;;
6626;SDS011;3349;49.830;8.748;2023-04-28T13:58:17;3.92;;;3.22;;
6626;SDS011;3349;49.830;8.748;2023-04-28T14:00:45;7.28;;;5.90;;
6626;SDS011;3349;49.830;8.748;2023-04-28T14:03:11;5.32;;;4.70;;
6626;SDS011;3349;49.830;8.748;2023-04-28T14:05:41;5.63;;;4.18;;
6626;SDS011;3349;49.830;8.748;2023-04-28T14:08:09;7.88;;;5.30;;
6626;SDS011;3349;49.830;8.748;2023-04-28T14:10:36;6.07;;;5.47;;
6626;SDS011;3349;49.830;8.748;2023-04-28T14:13:03;8.35;;;6.35;;
6626;SDS011;3349;49.830;8.748;2023-04-28T14:15:30;2.80;;;2.60;;
6626;SDS011;3349;49.830;8.748;2023-04-28T14:17:57;4.25;;;3.85;;
6626;SDS011;3349;49.830;8.748;2023-04-28T14:20:24;8.18;;;6.03;;
6626;SDS011;3349;49.830;8.748;2023-04-28T14:22:52;3.47;;;3.08;;
6626;SDS011;3349;49.830;8.748;2023-04-28T14:25:19;3.10;;;2.80;;
6626;SDS011;3349;49.830;8.748;2023-04-28T14:27:47;2.88;;;2.58;;
6626;SDS011;3349;49.830;8.748;2023-04-28T14:30:14;2.60;;;2.40;;
6626;SDS011;3349;49.830;8.748;2023-04-28T14:32:41;4.10;;;3.80;;
6626;SDS011;3349;49.830;8.748;2023-04-28T14:35:09;3.90;;;2.72;;
6626;SDS011;3349;49.830;8.748;2023-04-28T14:37:36;4.20;;;2.92;;
6626;SDS011;3349;49.830;8.748;2023-04-28T14:40:05;1.95;;;1.83;;
6626;SDS011;3349;49.830;8.748;2023-04-28T14:42:33;2.47;;;1.50;;
6626;SDS011;3349;49.830;8.748;2023-04-28T14:45:01;1.77;;;1.67;;
6626;SDS011;3349;49.830;8.748;2023-04-28T14:47:29;3.22;;;1.60;;
6626;SDS011;3349;49.830;8.748;2023-04-28T14:49:56;2.75;;;2.38;;
6626;SDS011;3349;49.830;8.748;2023-04-28T14:52:23;1.95;;;1.70;;
6626;SDS011;3349;49.830;8.748;2023-04-28T14:54:53;2.08;;;1.88;;
6626;SDS011;3349;49.830;8.748;2023-04-28T14:57:21;4.90;;;3.10;;
6626;SDS011;3349;49.830;8.748;2023-04-28T14:59:49;3.70;;;3.08;;
6626;SDS011;3349;49.830;8.748;2023-04-28T15:02:16;1.60;;;1.45;;
6626;SDS011;3349;49.830;8.748;2023-04-28T15:04:44;9.30;;;5.63;;
6626;SDS011;3349;49.830;8.748;2023-04-28T15:07:11;5.78;;;2.97;;
6626;SDS011;3349;49.830;8.748;2023-04-28T15:09:38;2.67;;;1.60;;
6626;SDS011;3349;49.830;8.748;2023-04-28T15:12:05;1.60;;;1.50;;
6626;SDS011;3349;49.830;8.748;2023-04-28T15:14:33;4.20;;;1.30;;
6626;SDS011;3349;49.830;8.748;2023-04-28T15:17:00;1.65;;;1.30;;
6626;SDS011;3349;49.830;8.748;2023-04-28T15:19:28;3.25;;;1.33;;
6626;SDS011;3349;49.830;8.748;2023-04-28T15:21:55;3.63;;;1.55;;
6626;SDS011;3349;49.830;8.748;2023-04-28T15:24:22;2.20;;;2.00;;
6626;SDS011;3349;49.830;8.748;2023-04-28T15:26:49;1.10;;;1.00;;
6626;SDS011;3349;49.830;8.748;2023-04-28T15:29:15;1.60;;;1.50;;